Time;durP1;ratioP1;P1;durP2;ratioP2;P2;SDS_P1;SDS_P2;PMS_P1;PMS_P2;Temp;Humidity;BMP_temperature;BMP_pressure;BME280_temperature;BME280_humidity;BME280_pressure;Samples;Min_cycle;Max_cycle;Signal;HPM_P1;HPM_P2
2022/09/18 00:01:49;;;;;;;2.00;0.60;;;;;;;;;;4983259;28;20114;-75
2022/09/18 00:04:15;;;;;;;3.58;0.50;;;;;;;;;;4991063;28;20154;-75
2022/09/18 00:06:42;;;;;;;3.88;0.38;;;;;;;;;;4988631;28;20054;-75
2022/09/18 00:09:09;;;;;;;2.47;0.50;;;;;;;;;;4981846;28;20100;-75
2022/09/18 00:11:37;;;;;;;6.55;0.73;;;;;;;;;;4981263;28;20153;-75
2022/09/18 00:14:07;;;;;;;1.15;0.40;;;;;;;;;;4989469;28;20427;-75
2022/09/18 00:16:33;;;;;;;2.50;0.50;;;;;;;;;;4987227;28;20030;-74
2022/09/18 00:18:59;;;;;;;2.45;0.57;;;;;;;;;;4980408;28;20046;-75
2022/09/18 00:21:27;;;;;;;1.60;0.45;;;;;;;;;;4986039;28;20861;-75
2022/09/18 00:23:57;;;;;;;7.95;1.17;;;;;;;;;;4985329;28;20036;-75
2022/09/18 00:26:24;;;;;;;3.22;0.50;;;;;;;;;;4983273;28;20051;-75
2022/09/18 00:28:50;;;;;;;4.78;0.70;;;;;;;;;;4990732;28;20731;-75
2022/09/18 00:31:18;;;;;;;5.22;0.70;;;;;;;;;;4980695;28;20062;-75
2022/09/18 00:33:44;;;;;;;5.95;0.68;;;;;;;;;;4993245;28;20038;-75
2022/09/18 00:36:12;;;;;;;2.50;0.50;;;;;;;;;;4984124;28;20033;-75
2022/09/18 00:38:38;;;;;;;2.83;0.50;;;;;;;;;;4987300;28;20038;-75
2022/09/18 00:41:06;;;;;;;4.05;0.52;;;;;;;;;;4990937;28;20042;-75
2022/09/18 00:43:33;;;;;;;2.90;0.60;;;;;;;;;;4984375;28;20035;-75
2022/09/18 00:46:05;;;;;;;1.92;0.50;;;;;;;;;;4979871;28;20464;-75
2022/09/18 00:48:45;;;;;;;4.13;0.57;;;;;;;;;;4987370;28;20134;-75
2022/09/18 00:51:11;;;;;;;2.15;0.60;;;;;;;;;;4981586;28;20041;-75
2022/09/18 00:53:39;;;;;;;4.75;0.52;;;;;;;;;;4987959;28;20831;-75
2022/09/18 00:56:06;;;;;;;5.00;0.95;;;;;;;;;;4986800;28;20057;-75
2022/09/18 00:58:33;;;;;;;2.33;0.50;;;;;;;;;;4983156;28;20031;-75
2022/09/18 01:01:00;;;;;;;2.45;0.60;;;;;;;;;;4989450;28;20161;-75
2022/09/18 01:03:26;;;;;;;3.03;0.80;;;;;;;;;;4983849;28;20030;-75
2022/09/18 01:05:57;;;;;;;4.93;0.80;;;;;;;;;;4982790;28;20031;-75
2022/09/18 01:08:41;;;;;;;1.75;0.60;;;;;;;;;;4986502;28;20085;-75
2022/09/18 01:11:29;;;;;;;4.40;0.50;;;;;;;;;;4978271;28;20093;-75
2022/09/18 01:14:07;;;;;;;3.28;0.55;;;;;;;;;;4987386;28;20077;-75
2022/09/18 01:16:39;;;;;;;5.63;0.95;;;;;;;;;;4986785;28;20038;-75
2022/09/18 01:19:25;;;;;;;2.67;0.73;;;;;;;;;;4982532;28;20119;-75
2022/09/18 01:21:51;;;;;;;4.13;0.50;;;;;;;;;;4977584;28;20038;-75
2022/09/18 01:24:33;;;;;;;3.13;0.50;;;;;;;;;;4983694;28;20061;-75
2022/09/18 01:27:04;;;;;;;3.47;0.60;;;;;;;;;;4982165;28;20709;-75
2022/09/18 01:29:35;;;;;;;4.30;1.98;;;;;;;;;;4985860;28;20038;-75
2022/09/18 01:32:09;;;;;;;4.68;1.67;;;;;;;;;;4979466;28;20097;-75
2022/09/18 01:34:52;;;;;;;7.63;0.93;;;;;;;;;;4981987;28;20030;-74
2022/09/18 01:37:41;;;;;;;2.25;0.55;;;;;;;;;;4980368;28;20026;-75
2022/09/18 01:40:14;;;;;;;3.15;0.70;;;;;;;;;;4960358;28;20920;-75
2022/09/18 01:42:41;;;;;;;4.05;0.80;;;;;;;;;;4987654;28;20065;-75
2022/09/18 01:45:10;;;;;;;3.50;0.70;;;;;;;;;;4977257;28;20097;-75
2022/09/18 01:47:39;;;;;;;2.63;0.50;;;;;;;;;;4985823;28;20026;-75
2022/09/18 01:50:06;;;;;;;4.93;0.60;;;;;;;;;;4986419;28;20050;-75
2022/09/18 01:52:38;;;;;;;3.47;0.68;;;;;;;;;;4983417;28;20041;-75
2022/09/18 01:55:06;;;;;;;3.73;0.60;;;;;;;;;;4989325;28;20038;-75
2022/09/18 01:57:46;;;;;;;2.80;0.60;;;;;;;;;;4977713;28;20035;-75
2022/09/18 02:00:13;;;;;;;2.25;0.50;;;;;;;;;;4980419;28;20030;-75
2022/09/18 02:02:43;;;;;;;3.60;0.52;;;;;;;;;;4973789;28;20031;-75
2022/09/18 02:05:11;;;;;;;2.33;0.50;;;;;;;;;;4989745;28;20038;-75
2022/09/18 02:07:55;;;;;;;3.97;0.55;;;;;;;;;;4983103;28;20050;-75
2022/09/18 02:10:22;;;;;;;1.52;0.40;;;;;;;;;;4987008;28;20042;-75
2022/09/18 02:12:50;;;;;;;1.58;0.50;;;;;;;;;;4977787;28;20674;-75
2022/09/18 02:15:16;;;;;;;5.03;0.77;;;;;;;;;;4976801;28;20039;-75
2022/09/18 02:17:47;;;;;;;2.03;0.85;;;;;;;;;;4977689;28;20030;-75
2022/09/18 02:20:19;;;;;;;5.32;0.60;;;;;;;;;;4983099;28;20428;-74
2022/09/18 02:22:46;;;;;;;2.45;0.57;;;;;;;;;;4982623;28;20061;-74
2022/09/18 02:25:14;;;;;;;2.45;0.68;;;;;;;;;;4989133;28;20037;-75
2022/09/18 02:27:41;;;;;;;1.83;0.60;;;;;;;;;;4980306;28;20042;-75
2022/09/18 02:30:08;;;;;;;2.15;0.80;;;;;;;;;;4979536;28;20361;-75
2022/09/18 02:32:38;;;;;;;3.05;0.65;;;;;;;;;;4985203;28;20048;-75
2022/09/18 02:35:05;;;;;;;4.22;0.63;;;;;;;;;;4972677;28;20043;-75
2022/09/18 02:37:34;;;;;;;2.13;0.63;;;;;;;;;;4982861;28;20141;-75
2022/09/18 02:40:05;;;;;;;1.45;0.38;;;;;;;;;;4983450;28;20131;-75
2022/09/18 02:42:34;;;;;;;3.92;0.50;;;;;;;;;;4974701;28;20038;-75
2022/09/18 02:45:13;;;;;;;2.80;0.60;;;;;;;;;;4975428;28;20035;-75
2022/09/18 02:47:48;;;;;;;4.18;0.70;;;;;;;;;;4984656;28;20126;-75
2022/09/18 02:50:17;;;;;;;2.30;0.43;;;;;;;;;;4983258;28;20038;-75
2022/09/18 02:53:02;;;;;;;2.40;0.75;;;;;;;;;;4981769;28;20034;-75
2022/09/18 02:55:38;;;;;;;1.85;0.60;;;;;;;;;;4983385;28;20796;-75
2022/09/18 02:58:06;;;;;;;2.67;0.85;;;;;;;;;;4981199;28;20049;-75
2022/09/18 03:00:34;;;;;;;6.78;0.63;;;;;;;;;;4978204;28;20780;-75
2022/09/18 03:03:01;;;;;;;4.00;1.20;;;;;;;;;;4986408;28;20153;-75
2022/09/18 03:05:27;;;;;;;5.32;0.70;;;;;;;;;;4982423;28;20138;-74
2022/09/18 03:07:53;;;;;;;3.53;0.60;;;;;;;;;;4973512;28;20493;-74
2022/09/18 03:10:19;;;;;;;4.68;0.65;;;;;;;;;;4984367;28;20138;-74
2022/09/18 03:12:45;;;;;;;4.65;0.73;;;;;;;;;;4981278;28;20447;-75
2022/09/18 03:15:11;;;;;;;3.13;0.50;;;;;;;;;;4988381;28;20121;-75
2022/09/18 03:17:37;;;;;;;2.72;0.60;;;;;;;;;;4987812;28;20035;-75
2022/09/18 03:20:06;;;;;;;4.40;0.80;;;;;;;;;;4982062;28;20353;-75
2022/09/18 03:22:32;;;;;;;4.38;0.50;;;;;;;;;;4982502;28;20026;-74
2022/09/18 03:24:58;;;;;;;3.00;0.70;;;;;;;;;;4979913;28;20120;-75
2022/09/18 03:27:24;;;;;;;3.53;0.68;;;;;;;;;;4986085;28;20448;-75
2022/09/18 03:29:50;;;;;;;8.70;0.90;;;;;;;;;;4991435;28;20037;-75
2022/09/18 03:32:16;;;;;;;2.58;0.70;;;;;;;;;;4985684;28;20038;-75
2022/09/18 03:34:42;;;;;;;2.80;0.60;;;;;;;;;;4992138;28;20058;-75
2022/09/18 03:37:08;;;;;;;3.75;0.77;;;;;;;;;;4977967;28;20515;-75
2022/09/18 03:39:34;;;;;;;4.22;0.70;;;;;;;;;;4992562;28;20030;-74
2022/09/18 03:42:00;;;;;;;2.42;0.45;;;;;;;;;;4990226;28;20072;-75
2022/09/18 03:44:26;;;;;;;3.13;0.57;;;;;;;;;;4974410;28;20062;-74
2022/09/18 03:46:52;;;;;;;3.78;0.60;;;;;;;;;;4985397;28;20038;-74
2022/09/18 03:49:18;;;;;;;2.47;0.80;;;;;;;;;;4991414;28;20077;-75
2022/09/18 03:51:44;;;;;;;12.45;1.40;;;;;;;;;;4990256;28;20034;-75
2022/09/18 03:54:10;;;;;;;2.33;0.60;;;;;;;;;;4980733;28;20118;-74
2022/09/18 03:56:37;;;;;;;3.15;0.80;;;;;;;;;;4988316;28;20527;-75
2022/09/18 03:59:03;;;;;;;3.35;0.65;;;;;;;;;;4989821;28;20113;-75
2022/09/18 04:01:29;;;;;;;4.03;0.80;;;;;;;;;;4991992;28;20706;-74
2022/09/18 04:03:55;;;;;;;2.05;0.52;;;;;;;;;;4984639;28;20061;-74
2022/09/18 04:06:21;;;;;;;2.25;0.40;;;;;;;;;;4988455;28;20050;-75
2022/09/18 04:08:48;;;;;;;2.50;0.63;;;;;;;;;;4988105;28;20598;-75
2022/09/18 04:11:14;;;;;;;4.72;0.57;;;;;;;;;;4990602;28;20113;-75
2022/09/18 04:13:40;;;;;;;3.72;0.55;;;;;;;;;;4990130;28;20134;-75
2022/09/18 04:16:06;;;;;;;6.45;0.80;;;;;;;;;;4985448;28;20034;-75
2022/09/18 04:18:33;;;;;;;1.98;0.50;;;;;;;;;;4986869;28;21383;-75
2022/09/18 04:20:58;;;;;;;4.00;0.65;;;;;;;;;;4990779;28;20371;-74
2022/09/18 04:23:25;;;;;;;2.30;0.43;;;;;;;;;;4991056;28;20054;-75
2022/09/18 04:25:51;;;;;;;2.00;0.50;;;;;;;;;;4979841;28;20089;-75
2022/09/18 04:28:17;;;;;;;5.07;0.50;;;;;;;;;;4982775;28;20039;-75
2022/09/18 04:30:43;;;;;;;1.75;0.40;;;;;;;;;;4983044;28;20078;-75
2022/09/18 04:33:09;;;;;;;1.90;0.60;;;;;;;;;;4976412;28;20022;-75
2022/09/18 04:35:35;;;;;;;4.25;0.65;;;;;;;;;;4985942;28;20087;-74
2022/09/18 04:38:01;;;;;;;5.82;0.73;;;;;;;;;;4989349;28;20484;-75
2022/09/18 04:40:27;;;;;;;3.90;0.65;;;;;;;;;;4990687;28;20035;-74
2022/09/18 04:42:56;;;;;;;4.30;0.50;;;;;;;;;;4978379;28;20069;-75
2022/09/18 04:45:22;;;;;;;4.70;0.93;;;;;;;;;;4976172;28;20027;-74
2022/09/18 04:47:48;;;;;;;4.07;0.70;;;;;;;;;;4985475;28;20049;-74
2022/09/18 04:50:14;;;;;;;5.75;0.40;;;;;;;;;;4980003;28;20074;-75
2022/09/18 04:52:40;;;;;;;2.78;0.57;;;;;;;;;;4978440;28;20101;-75
2022/09/18 04:55:06;;;;;;;3.92;0.60;;;;;;;;;;4983752;28;20038;-74
2022/09/18 04:57:32;;;;;;;1.75;0.50;;;;;;;;;;4988001;28;20042;-74
2022/09/18 04:59:58;;;;;;;3.05;0.70;;;;;;;;;;4989322;28;20026;-75
2022/09/18 05:02:24;;;;;;;4.38;0.57;;;;;;;;;;4981086;28;20106;-74
2022/09/18 05:04:50;;;;;;;3.92;0.70;;;;;;;;;;4983943;28;20050;-74
2022/09/18 05:07:16;;;;;;;3.60;0.60;;;;;;;;;;4988954;28;20062;-75
2022/09/18 05:09:42;;;;;;;3.33;0.55;;;;;;;;;;4993191;28;20778;-75
2022/09/18 05:12:08;;;;;;;3.67;0.73;;;;;;;;;;4990954;28;20069;-75
2022/09/18 05:14:34;;;;;;;1.17;0.47;;;;;;;;;;4981385;28;20043;-75
2022/09/18 05:17:00;;;;;;;3.80;0.65;;;;;;;;;;4988318;28;20514;-75
2022/09/18 05:19:27;;;;;;;3.13;0.57;;;;;;;;;;4985384;28;20026;-74
2022/09/18 05:21:53;;;;;;;3.80;0.70;;;;;;;;;;4989873;28;20031;-75
2022/09/18 05:24:19;;;;;;;2.88;0.50;;;;;;;;;;4989483;28;20034;-75
2022/09/18 05:26:45;;;;;;;6.25;0.90;;;;;;;;;;4982005;28;20520;-75
2022/09/18 05:29:11;;;;;;;11.50;1.27;;;;;;;;;;4981305;28;20054;-75
2022/09/18 05:31:37;;;;;;;3.63;0.50;;;;;;;;;;4984814;28;20034;-75
2022/09/18 05:34:03;;;;;;;1.48;0.43;;;;;;;;;;4983637;28;20038;-75
2022/09/18 05:36:29;;;;;;;3.22;0.68;;;;;;;;;;4981504;28;20443;-74
2022/09/18 05:38:55;;;;;;;1.83;0.55;;;;;;;;;;4976243;28;20102;-75
2022/09/18 05:41:21;;;;;;;3.55;0.55;;;;;;;;;;4970335;28;20031;-74
2022/09/18 05:43:47;;;;;;;1.73;0.45;;;;;;;;;;4980458;28;20676;-75
2022/09/18 05:46:13;;;;;;;1.85;0.40;;;;;;;;;;4978207;28;20039;-74
2022/09/18 05:48:39;;;;;;;2.90;0.50;;;;;;;;;;4981919;28;20030;-75
2022/09/18 05:51:05;;;;;;;3.08;0.60;;;;;;;;;;4988039;28;20113;-75
2022/09/18 05:53:31;;;;;;;2.80;0.60;;;;;;;;;;4989521;28;20109;-74
2022/09/18 05:56:00;;;;;;;4.15;0.80;;;;;;;;;;4986086;28;20057;-75
2022/09/18 05:58:26;;;;;;;3.80;0.60;;;;;;;;;;4988891;28;20105;-74
2022/09/18 06:00:56;;;;;;;3.30;0.57;;;;;;;;;;4985338;28;20129;-74
2022/09/18 06:03:22;;;;;;;5.38;0.75;;;;;;;;;;4972766;28;20031;-74
2022/09/18 06:05:52;;;;;;;4.05;0.77;;;;;;;;;;4972896;28;20141;-75
2022/09/18 06:08:18;;;;;;;3.60;1.25;;;;;;;;;;4977813;28;20026;-75
2022/09/18 06:10:44;;;;;;;8.60;1.15;;;;;;;;;;4983832;28;20037;-75
2022/09/18 06:13:12;;;;;;;5.68;1.33;;;;;;;;;;4987290;28;20469;-75
2022/09/18 06:15:39;;;;;;;4.32;1.15;;;;;;;;;;4973990;28;20137;-75
2022/09/18 06:18:07;;;;;;;1.92;0.90;;;;;;;;;;4980825;28;20113;-74
2022/09/18 06:20:33;;;;;;;3.03;0.60;;;;;;;;;;4983436;28;20026;-75
2022/09/18 06:23:00;;;;;;;3.92;0.60;;;;;;;;;;4984061;28;20460;-75
2022/09/18 06:25:26;;;;;;;3.35;0.65;;;;;;;;;;4979157;28;20590;-75
2022/09/18 06:27:57;;;;;;;2.97;1.00;;;;;;;;;;4982615;28;20468;-74
2022/09/18 06:30:24;;;;;;;4.65;1.13;;;;;;;;;;4985762;28;20476;-74
2022/09/18 06:32:50;;;;;;;2.65;0.73;;;;;;;;;;4983706;28;20452;-75
2022/09/18 06:35:16;;;;;;;3.85;1.30;;;;;;;;;;4988227;28;20119;-75
2022/09/18 06:37:42;;;;;;;7.38;1.13;;;;;;;;;;4988557;28;20106;-75
2022/09/18 06:40:08;;;;;;;5.63;0.90;;;;;;;;;;4988672;28;20392;-75
2022/09/18 06:42:34;;;;;;;3.33;0.98;;;;;;;;;;4977174;28;20046;-74
2022/09/18 06:45:00;;;;;;;3.75;0.80;;;;;;;;;;4985588;28;20042;-74
2022/09/18 06:47:26;;;;;;;2.72;0.80;;;;;;;;;;4980087;28;20400;-75
2022/09/18 06:49:52;;;;;;;3.88;0.73;;;;;;;;;;4987528;28;20510;-75
2022/09/18 06:52:18;;;;;;;2.92;0.80;;;;;;;;;;4973499;28;20038;-75
2022/09/18 06:54:44;;;;;;;3.85;0.77;;;;;;;;;;4976157;28;20100;-75
2022/09/18 06:57:10;;;;;;;1.55;0.50;;;;;;;;;;4979292;28;20034;-75
2022/09/18 06:59:37;;;;;;;6.05;0.60;;;;;;;;;;4984018;28;20038;-75
2022/09/18 07:02:04;;;;;;;4.18;0.70;;;;;;;;;;4985561;28;20034;-75
2022/09/18 07:04:30;;;;;;;2.20;0.70;;;;;;;;;;4986749;28;20034;-75
2022/09/18 07:06:56;;;;;;;2.30;0.70;;;;;;;;;;4979493;28;20050;-75
2022/09/18 07:09:22;;;;;;;2.80;0.65;;;;;;;;;;4992493;28;20610;-75
2022/09/18 07:11:48;;;;;;;3.20;0.70;;;;;;;;;;4987465;28;20035;-75
2022/09/18 07:14:14;;;;;;;3.83;0.70;;;;;;;;;;4986060;28;20649;-75
2022/09/18 07:16:40;;;;;;;2.95;0.43;;;;;;;;;;4992451;28;20022;-75
2022/09/18 07:19:06;;;;;;;6.30;0.73;;;;;;;;;;4986590;28;20384;-76
2022/09/18 07:21:32;;;;;;;3.88;0.57;;;;;;;;;;4984095;28;20046;-75
2022/09/18 07:23:58;;;;;;;4.63;0.50;;;;;;;;;;4989954;28;20042;-75
2022/09/18 07:26:24;;;;;;;2.97;0.60;;;;;;;;;;4991007;28;20053;-75
2022/09/18 07:28:51;;;;;;;2.13;0.65;;;;;;;;;;4989717;28;20168;-75
2022/09/18 07:31:17;;;;;;;3.13;0.68;;;;;;;;;;4986805;28;20038;-75
2022/09/18 07:33:43;;;;;;;3.30;0.80;;;;;;;;;;4984362;28;20042;-75
2022/09/18 07:36:09;;;;;;;3.22;0.68;;;;;;;;;;4989522;28;20045;-75
2022/09/18 07:38:36;;;;;;;3.22;0.43;;;;;;;;;;4990376;28;20753;-75
2022/09/18 07:41:03;;;;;;;2.88;0.80;;;;;;;;;;4992328;28;20030;-76
2022/09/18 07:43:29;;;;;;;2.60;0.73;;;;;;;;;;4975483;28;20498;-75
2022/09/18 07:45:55;;;;;;;1.73;0.57;;;;;;;;;;4989652;28;20034;-75
2022/09/18 07:48:22;;;;;;;3.55;0.70;;;;;;;;;;4989622;28;20037;-75
2022/09/18 07:50:48;;;;;;;4.18;0.52;;;;;;;;;;4983553;28;20030;-75
2022/09/18 07:53:16;;;;;;;3.05;0.50;;;;;;;;;;4986382;28;20031;-76
2022/09/18 07:55:46;;;;;;;3.05;0.75;;;;;;;;;;4982728;28;20037;-76
2022/09/18 07:58:12;;;;;;;3.05;0.90;;;;;;;;;;4987671;28;20033;-76
2022/09/18 08:00:38;;;;;;;3.55;0.60;;;;;;;;;;4991851;28;20038;-76
2022/09/18 08:03:10;;;;;;;3.67;0.70;;;;;;;;;;4987527;28;20145;-76
2022/09/18 08:05:36;;;;;;;3.70;0.77;;;;;;;;;;4988810;28;20587;-76
2022/09/18 08:08:05;;;;;;;3.35;0.80;;;;;;;;;;4976614;28;20051;-76
2022/09/18 08:10:32;;;;;;;2.08;0.50;;;;;;;;;;4960086;28;20027;-76
2022/09/18 08:12:58;;;;;;;3.42;0.88;;;;;;;;;;4970043;28;20050;-76
2022/09/18 08:15:24;;;;;;;2.60;0.50;;;;;;;;;;4969233;28;20030;-76
2022/09/18 08:17:50;;;;;;;4.03;0.55;;;;;;;;;;4966178;28;20031;-76
2022/09/18 08:20:17;;;;;;;5.07;0.60;;;;;;;;;;4969316;28;20153;-76
2022/09/18 08:22:43;;;;;;;3.25;0.55;;;;;;;;;;4963589;28;20424;-76
2022/09/18 08:25:10;;;;;;;3.30;0.60;;;;;;;;;;4962870;28;20039;-76
2022/09/18 08:27:36;;;;;;;1.45;0.40;;;;;;;;;;4968315;28;20451;-76
2022/09/18 08:30:04;;;;;;;2.60;0.40;;;;;;;;;;4971105;28;20769;-76
2022/09/18 08:32:30;;;;;;;1.63;0.40;;;;;;;;;;4970932;28;20041;-76
2022/09/18 08:34:58;;;;;;;1.70;0.40;;;;;;;;;;4964657;28;20043;-76
2022/09/18 08:37:25;;;;;;;1.52;0.40;;;;;;;;;;4969432;28;20764;-76
2022/09/18 08:39:51;;;;;;;4.97;0.40;;;;;;;;;;4959972;28;20028;-75
2022/09/18 08:42:17;;;;;;;3.92;0.40;;;;;;;;;;4963642;28;20031;-75
2022/09/18 08:44:43;;;;;;;2.88;0.47;;;;;;;;;;4969298;28;20031;-76
2022/09/18 08:47:13;;;;;;;2.55;0.50;;;;;;;;;;4965894;28;20373;-76
2022/09/18 08:49:45;;;;;;;3.53;0.60;;;;;;;;;;4965483;28;20039;-76
2022/09/18 08:52:19;;;;;;;3.92;0.52;;;;;;;;;;4966635;28;20039;-76
2022/09/18 08:54:48;;;;;;;1.85;0.50;;;;;;;;;;4964296;28;20039;-76
2022/09/18 08:57:21;;;;;;;3.47;0.70;;;;;;;;;;4959134;28;20039;-76
2022/09/18 08:59:58;;;;;;;2.70;0.60;;;;;;;;;;4970331;28;20404;-76
2022/09/18 09:02:27;;;;;;;3.58;0.70;;;;;;;;;;4969839;28;20105;-76
2022/09/18 09:04:57;;;;;;;1.95;0.40;;;;;;;;;;4966966;28;20042;-76
2022/09/18 09:07:42;;;;;;;4.45;0.50;;;;;;;;;;4971215;28;20053;-76
2022/09/18 09:10:14;;;;;;;3.70;0.52;;;;;;;;;;4963698;28;20532;-76
2022/09/18 09:12:52;;;;;;;1.30;0.40;;;;;;;;;;4958466;28;20468;-76
2022/09/18 09:15:24;;;;;;;3.08;0.50;;;;;;;;;;4969064;28;20035;-76
2022/09/18 09:17:53;;;;;;;2.60;0.50;;;;;;;;;;4960607;28;20122;-76
2022/09/18 09:20:23;;;;;;;2.30;0.47;;;;;;;;;;4961496;28;20385;-76
2022/09/18 09:22:53;;;;;;;1.92;0.40;;;;;;;;;;4966334;28;20473;-76
2022/09/18 09:25:23;;;;;;;1.63;0.30;;;;;;;;;;4969134;28;20039;-76
2022/09/18 09:27:57;;;;;;;1.45;0.38;;;;;;;;;;4961895;28;20035;-76
2022/09/18 09:30:24;;;;;;;1.65;0.40;;;;;;;;;;4959368;28;20043;-76
2022/09/18 09:32:50;;;;;;;5.15;0.65;;;;;;;;;;4978749;28;20090;-76
2022/09/18 09:35:16;;;;;;;2.10;0.50;;;;;;;;;;4958015;28;20520;-76
2022/09/18 09:37:44;;;;;;;4.18;0.60;;;;;;;;;;4971081;28;20030;-76
2022/09/18 09:40:16;;;;;;;2.00;0.40;;;;;;;;;;4966921;28;20047;-76
2022/09/18 09:42:55;;;;;;;3.70;0.30;;;;;;;;;;4968750;28;20043;-75
2022/09/18 09:45:29;;;;;;;2.90;0.80;;;;;;;;;;4957808;28;20050;-76
2022/09/18 09:48:07;;;;;;;2.20;0.40;;;;;;;;;;4962327;28;20049;-75
2022/09/18 09:50:41;;;;;;;1.38;0.20;;;;;;;;;;4974765;28;20027;-76
2022/09/18 09:53:09;;;;;;;1.02;0.30;;;;;;;;;;4965956;28;20066;-76
2022/09/18 09:55:40;;;;;;;4.80;0.40;;;;;;;;;;4969909;28;20031;-76
2022/09/18 09:58:09;;;;;;;2.92;0.50;;;;;;;;;;4977480;28;20039;-76
2022/09/18 10:00:42;;;;;;;2.15;0.60;;;;;;;;;;4973413;28;20019;-76
2022/09/18 10:03:11;;;;;;;1.67;0.35;;;;;;;;;;4969334;28;20039;-76
2022/09/18 10:05:37;;;;;;;3.05;0.73;;;;;;;;;;4967108;28;20037;-76
2022/09/18 10:08:09;;;;;;;2.50;0.50;;;;;;;;;;4985292;28;20058;-76
2022/09/18 10:10:51;;;;;;;4.07;0.45;;;;;;;;;;4976830;28;20097;-76
2022/09/18 10:13:46;;;;;;;1.30;0.30;;;;;;;;;;4988052;28;20145;-76
2022/09/18 10:16:34;;;;;;;2.58;0.40;;;;;;;;;;4969128;28;20054;-76
2022/09/18 10:19:00;;;;;;;2.65;0.40;;;;;;;;;;4986365;28;20495;-76
2022/09/18 10:21:28;;;;;;;2.60;0.35;;;;;;;;;;4978488;28;20035;-76
2022/09/18 10:24:14;;;;;;;3.03;0.40;;;;;;;;;;4980404;28;20500;-76
2022/09/18 10:26:45;;;;;;;2.55;0.52;;;;;;;;;;4988758;28;20372;-76
2022/09/18 10:29:11;;;;;;;2.92;0.50;;;;;;;;;;4985243;28;20160;-77
2022/09/18 10:31:50;;;;;;;3.88;0.50;;;;;;;;;;4981269;28;20760;-76
2022/09/18 10:34:29;;;;;;;6.43;0.70;;;;;;;;;;4975885;28;20081;-76
2022/09/18 10:36:55;;;;;;;1.77;0.38;;;;;;;;;;4987014;28;20387;-76
2022/09/18 10:39:29;;;;;;;2.25;0.30;;;;;;;;;;4973825;28;20105;-77
2022/09/18 10:41:56;;;;;;;2.40;0.32;;;;;;;;;;4984006;28;20026;-76
2022/09/18 10:44:30;;;;;;;2.70;0.30;;;;;;;;;;4985367;28;20802;-76
2022/09/18 10:47:07;;;;;;;1.83;0.30;;;;;;;;;;4989274;28;20045;-76
2022/09/18 10:49:41;;;;;;;1.20;0.30;;;;;;;;;;4981880;28;20041;-76
2022/09/18 10:52:30;;;;;;;1.23;0.25;;;;;;;;;;4977187;28;20113;-76
2022/09/18 10:54:59;;;;;;;3.75;0.50;;;;;;;;;;4981301;28;20042;-75
2022/09/18 10:57:27;;;;;;;1.40;0.40;;;;;;;;;;4982146;28;20030;-76
2022/09/18 10:59:53;;;;;;;2.50;0.50;;;;;;;;;;4979903;28;20400;-76
2022/09/18 11:02:20;;;;;;;2.42;0.40;;;;;;;;;;4976674;28;20532;-76
2022/09/18 11:04:47;;;;;;;2.85;0.40;;;;;;;;;;4981816;28;20201;-76
2022/09/18 11:07:13;;;;;;;2.22;0.50;;;;;;;;;;4977176;28;20442;-76
2022/09/18 11:09:40;;;;;;;2.92;0.47;;;;;;;;;;4981502;28;20718;-76
2022/09/18 11:12:20;;;;;;;1.92;0.30;;;;;;;;;;4987705;28;20064;-76
2022/09/18 11:15:02;;;;;;;2.22;0.40;;;;;;;;;;4978394;28;20489;-76
2022/09/18 11:17:28;;;;;;;;;;;;;;;;;;4988071;28;20045;-76
2022/09/18 11:19:55;;;;;;;2.63;0.50;;;;;;;;;;4984903;28;19918;-76
2022/09/18 11:22:32;;;;;;;0.88;0.40;;;;;;;;;;4982169;28;20077;-76
2022/09/18 11:25:18;;;;;;;1.05;0.43;;;;;;;;;;4981105;28;20043;-76
2022/09/18 11:27:51;;;;;;;2.30;0.40;;;;;;;;;;4975687;28;20751;-76
2022/09/18 11:30:25;;;;;;;1.60;0.40;;;;;;;;;;4981027;28;20043;-76
2022/09/18 11:32:59;;;;;;;1.50;0.40;;;;;;;;;;4985410;28;20034;-76
2022/09/18 11:35:26;;;;;;;3.42;0.50;;;;;;;;;;4977619;28;20041;-76
2022/09/18 11:37:54;;;;;;;2.78;0.40;;;;;;;;;;4986504;28;20041;-76
2022/09/18 11:40:31;;;;;;;1.52;0.40;;;;;;;;;;4985785;28;20038;-76
2022/09/18 11:42:58;;;;;;;2.08;0.40;;;;;;;;;;4980622;28;20034;-76
2022/09/18 11:45:33;;;;;;;2.00;0.38;;;;;;;;;;4982691;28;20483;-76
2022/09/18 11:48:08;;;;;;;2.05;0.32;;;;;;;;;;4987117;28;20166;-76
2022/09/18 11:50:36;;;;;;;2.70;0.40;;;;;;;;;;4986218;28;20038;-76
2022/09/18 11:53:09;;;;;;;3.10;0.40;;;;;;;;;;4986196;28;20038;-76
2022/09/18 11:55:37;;;;;;;1.88;0.50;;;;;;;;;;4985811;28;20038;-76
2022/09/18 11:58:05;;;;;;;1.48;0.30;;;;;;;;;;4984590;28;20035;-76
2022/09/18 12:00:35;;;;;;;3.15;0.38;;;;;;;;;;4981737;28;20037;-76
2022/09/18 12:03:01;;;;;;;5.22;0.57;;;;;;;;;;4984067;28;20034;-76
2022/09/18 12:05:36;;;;;;;1.13;0.30;;;;;;;;;;4985965;28;20471;-76
2022/09/18 12:08:12;;;;;;;1.35;0.32;;;;;;;;;;4987175;28;20061;-76
2022/09/18 12:10:56;;;;;;;2.40;0.43;;;;;;;;;;4985630;28;20498;-76
2022/09/18 12:13:29;;;;;;;2.38;0.28;;;;;;;;;;4983931;28;20450;-76
2022/09/18 12:16:00;;;;;;;3.08;0.32;;;;;;;;;;4990831;28;20038;-76
2022/09/18 12:18:30;;;;;;;1.48;0.40;;;;;;;;;;4990866;28;20472;-76
2022/09/18 12:20:59;;;;;;;1.58;0.45;;;;;;;;;;4989064;28;20037;-76
2022/09/18 12:23:26;;;;;;;2.28;0.30;;;;;;;;;;4988885;28;20121;-76
2022/09/18 12:26:00;;;;;;;2.60;0.47;;;;;;;;;;4986142;28;20161;-76
2022/09/18 12:28:29;;;;;;;2.00;0.30;;;;;;;;;;4982218;28;20054;-76
2022/09/18 12:30:55;;;;;;;3.20;0.60;;;;;;;;;;4976291;28;20098;-76
2022/09/18 12:33:41;;;;;;;4.20;0.60;;;;;;;;;;4987841;28;20723;-76
2022/09/18 12:36:25;;;;;;;3.60;0.60;;;;;;;;;;4946699;28;20081;-76
2022/09/18 12:38:54;;;;;;;3.30;0.50;;;;;;;;;;4986964;28;20038;-76
2022/09/18 12:41:29;;;;;;;1.92;0.47;;;;;;;;;;4987919;28;20383;-76
2022/09/18 12:44:01;;;;;;;2.40;0.50;;;;;;;;;;4985495;28;20042;-76
2022/09/18 12:46:27;;;;;;;;;;;;;;;;;;4990620;28;20042;-76
2022/09/18 12:49:08;;;;;;;3.95;0.30;;;;;;;;;;4983107;28;20659;-76
2022/09/18 12:51:46;;;;;;;2.70;0.50;;;;;;;;;;4988811;28;20026;-76
2022/09/18 12:54:36;;;;;;;6.68;0.60;;;;;;;;;;4989658;28;20034;-76
2022/09/18 12:57:23;;;;;;;2.25;0.47;;;;;;;;;;4984519;28;20045;-76
2022/09/18 12:59:58;;;;;;;6.28;0.50;;;;;;;;;;4987678;28;20428;-76
2022/09/18 13:02:42;;;;;;;2.53;0.40;;;;;;;;;;4984581;28;20069;-75
2022/09/18 13:05:17;;;;;;;5.97;0.43;;;;;;;;;;4980579;28;20039;-76
2022/09/18 13:07:48;;;;;;;2.63;0.95;;;;;;;;;;4977707;28;20055;-76
2022/09/18 13:10:23;;;;;;;6.35;0.70;;;;;;;;;;4963889;28;20495;-76
2022/09/18 13:12:59;;;;;;;4.63;0.40;;;;;;;;;;4972594;28;20042;-76
2022/09/18 13:15:27;;;;;;;1.98;0.40;;;;;;;;;;4967105;28;20066;-76
2022/09/18 13:18:01;;;;;;;3.65;0.45;;;;;;;;;;4971451;28;20042;-76
2022/09/18 13:20:31;;;;;;;5.03;0.60;;;;;;;;;;4968502;28;20034;-76
2022/09/18 13:22:58;;;;;;;4.13;0.35;;;;;;;;;;4972568;28;20035;-76
2022/09/18 13:25:31;;;;;;;3.75;0.50;;;;;;;;;;4963508;28;20078;-76
2022/09/18 13:27:57;;;;;;;1.50;0.45;;;;;;;;;;4967362;28;20050;-76
2022/09/18 13:30:25;;;;;;;4.55;0.63;;;;;;;;;;4967045;28;20069;-76
2022/09/18 13:32:52;;;;;;;4.90;0.65;;;;;;;;;;4960421;28;20042;-76
2022/09/18 13:35:29;;;;;;;3.28;0.80;;;;;;;;;;4971355;28;20034;-76
2022/09/18 13:38:05;;;;;;;2.95;0.50;;;;;;;;;;4968650;28;20858;-76
2022/09/18 13:40:39;;;;;;;2.00;0.40;;;;;;;;;;4968558;28;20376;-76
2022/09/18 13:43:14;;;;;;;4.32;0.47;;;;;;;;;;4967144;28;20039;-76
2022/09/18 13:45:40;;;;;;;2.08;0.45;;;;;;;;;;4964490;28;20031;-76
2022/09/18 13:48:13;;;;;;;2.80;0.60;;;;;;;;;;4960711;28;20045;-76
2022/09/18 13:50:48;;;;;;;2.78;0.40;;;;;;;;;;4969249;28;20037;-76
2022/09/18 13:53:29;;;;;;;2.85;0.40;;;;;;;;;;4966620;28;20031;-76
2022/09/18 13:55:55;;;;;;;2.58;0.60;;;;;;;;;;4959464;28;20026;-76
2022/09/18 13:58:33;;;;;;;2.75;0.40;;;;;;;;;;4962539;28;20042;-76
2022/09/18 14:01:00;;;;;;;1.48;0.40;;;;;;;;;;4958824;28;20031;-76
2022/09/18 14:03:26;;;;;;;0.95;0.22;;;;;;;;;;4960683;28;20537;-76
2022/09/18 14:05:52;;;;;;;1.30;0.30;;;;;;;;;;4965351;28;20117;-76
2022/09/18 14:08:18;;;;;;;2.90;0.45;;;;;;;;;;4981792;28;20058;-76
2022/09/18 14:10:44;;;;;;;1.75;0.32;;;;;;;;;;4977539;28;20036;-76
2022/09/18 14:13:17;;;;;;;2.65;0.40;;;;;;;;;;4984062;28;20030;-76
2022/09/18 14:16:09;;;;;;;1.98;0.35;;;;;;;;;;4981151;28;20037;-76
2022/09/18 14:18:35;;;;;;;;;;;;;;;;;;4959469;28;20149;-76
2022/09/18 14:21:25;;;;;;;1.42;0.30;;;;;;;;;;4987674;28;19997;-76
2022/09/18 14:24:24;;;;;;;1.83;0.60;;;;;;;;;;4976485;28;20616;-75
2022/09/18 14:26:54;;;;;;;0.95;0.30;;;;;;;;;;4977189;23;20070;-76
2022/09/18 14:29:20;;;;;;;1.38;0.30;;;;;;;;;;5004987;28;20033;-76
2022/09/18 14:31:54;;;;;;;1.58;0.45;;;;;;;;;;4999562;28;20034;-76
2022/09/18 14:34:35;;;;;;;0.73;0.20;;;;;;;;;;5003857;28;20029;-76
2022/09/18 14:37:15;;;;;;;0.60;0.20;;;;;;;;;;5001609;28;20495;-75
2022/09/18 14:39:41;;;;;;;1.58;0.35;;;;;;;;;;5006169;28;20049;-76
2022/09/18 14:42:16;;;;;;;1.27;0.30;;;;;;;;;;5005674;28;20491;-76
2022/09/18 14:44:51;;;;;;;0.80;0.40;;;;;;;;;;4998986;28;20502;-76
2022/09/18 14:47:22;;;;;;;0.98;0.30;;;;;;;;;;5005978;28;20048;-76
2022/09/18 14:49:48;;;;;;;1.38;0.30;;;;;;;;;;5001513;28;20062;-76
2022/09/18 14:52:21;;;;;;;7.47;0.40;;;;;;;;;;5003128;28;20768;-76
2022/09/18 14:54:48;;;;;;;1.75;0.40;;;;;;;;;;5001345;28;21475;-76
2022/09/18 14:57:15;;;;;;;1.17;0.30;;;;;;;;;;4975374;28;20067;-75
2022/09/18 14:59:41;;;;;;;1.90;0.30;;;;;;;;;;4981412;28;20030;-75